sensor_id;sensor_type;location;lat;lon;timestamp;temperature;humidity
21563;DHT22;10942;47.894;11.424;2023-02-11T00:01:53;-3.10;99.90
21563;DHT22;10942;47.894;11.424;2023-02-11T00:04:18;-3.00;99.90
21563;DHT22;10942;47.894;11.424;2023-02-11T00:06:44;-3.10;99.90
21563;DHT22;10942;47.894;11.424;2023-02-11T00:09:10;-3.00;99.90
21563;DHT22;10942;47.894;11.424;2023-02-11T00:11:35;-3.10;99.90
21563;DHT22;10942;47.894;11.424;2023-02-11T00:14:04;-3.10;99.90
21563;DHT22;10942;47.894;11.424;2023-02-11T00:16:30;-3.10;99.90
21563;DHT22;10942;47.894;11.424;2023-02-11T00:19:00;-3.10;99.90
21563;DHT22;10942;47.894;11.424;2023-02-11T00:21:27;-3.30;99.90
21563;DHT22;10942;47.894;11.424;2023-02-11T00:23:53;-3.30;99.90
21563;DHT22;10942;47.894;11.424;2023-02-11T00:26:25;-3.30;99.90
21563;DHT22;10942;47.894;11.424;2023-02-11T00:28:51;-3.20;99.90
21563;DHT22;10942;47.894;11.424;2023-02-11T00:31:18;-3.30;99.90
21563;DHT22;10942;47.894;11.424;2023-02-11T00:33:45;-3.30;99.90
21563;DHT22;10942;47.894;11.424;2023-02-11T00:36:15;-3.30;99.90
21563;DHT22;10942;47.894;11.424;2023-02-11T00:38:44;-3.30;99.90
21563;DHT22;10942;47.894;11.424;2023-02-11T00:41:11;-3.30;99.90
21563;DHT22;10942;47.894;11.424;2023-02-11T00:43:38;-3.30;99.90
21563;DHT22;10942;47.894;11.424;2023-02-11T00:46:03;-3.40;99.90
21563;DHT22;10942;47.894;11.424;2023-02-11T00:50:55;-3.40;99.90
21563;DHT22;10942;47.894;11.424;2023-02-11T00:53:21;-3.40;99.90
21563;DHT22;10942;47.894;11.424;2023-02-11T00:55:47;-3.50;99.90
21563;DHT22;10942;47.894;11.424;2023-02-11T00:58:13;-3.60;99.90
21563;DHT22;10942;47.894;11.424;2023-02-11T01:00:39;-3.60;99.90
21563;DHT22;10942;47.894;11.424;2023-02-11T01:03:05;-3.60;99.90
21563;DHT22;10942;47.894;11.424;2023-02-11T01:05:31;-3.70;99.90
21563;DHT22;10942;47.894;11.424;2023-02-11T01:07:57;-3.70;99.90
21563;DHT22;10942;47.894;11.424;2023-02-11T01:10:23;-3.70;99.90
21563;DHT22;10942;47.894;11.424;2023-02-11T01:12:49;-3.80;99.90
21563;DHT22;10942;47.894;11.424;2023-02-11T01:15:17;-3.80;99.90
21563;DHT22;10942;47.894;11.424;2023-02-11T01:17:43;-3.80;99.90
21563;DHT22;10942;47.894;11.424;2023-02-11T01:20:18;-3.80;99.90
21563;DHT22;10942;47.894;11.424;2023-02-11T01:22:44;-3.70;99.90
21563;DHT22;10942;47.894;11.424;2023-02-11T01:25:09;-3.70;99.90
21563;DHT22;10942;47.894;11.424;2023-02-11T01:27:36;-3.70;99.90
21563;DHT22;10942;47.894;11.424;2023-02-11T01:30:04;-3.70;99.90
21563;DHT22;10942;47.894;11.424;2023-02-11T01:32:29;-3.80;99.90
21563;DHT22;10942;47.894;11.424;2023-02-11T01:34:55;-3.80;99.90
21563;DHT22;10942;47.894;11.424;2023-02-11T01:37:21;-3.90;99.90
21563;DHT22;10942;47.894;11.424;2023-02-11T01:39:47;-3.90;99.90
21563;DHT22;10942;47.894;11.424;2023-02-11T01:42:18;-3.90;99.90
21563;DHT22;10942;47.894;11.424;2023-02-11T01:44:44;-3.90;99.90
21563;DHT22;10942;47.894;11.424;2023-02-11T01:47:10;-4.00;99.90
21563;DHT22;10942;47.894;11.424;2023-02-11T01:49:42;-4.00;99.90
21563;DHT22;10942;47.894;11.424;2023-02-11T01:52:20;-4.00;99.90
21563;DHT22;10942;47.894;11.424;2023-02-11T01:55:03;-4.00;99.90
21563;DHT22;10942;47.894;11.424;2023-02-11T01:57:54;-3.90;99.90
21563;DHT22;10942;47.894;11.424;2023-02-11T02:00:26;-4.00;99.90
21563;DHT22;10942;47.894;11.424;2023-02-11T02:10:51;-4.00;99.90
21563;DHT22;10942;47.894;11.424;2023-02-11T02:13:21;-4.10;99.90
21563;DHT22;10942;47.894;11.424;2023-02-11T02:16:02;-4.10;99.90
21563;DHT22;10942;47.894;11.424;2023-02-11T02:24:02;-4.30;99.90
21563;DHT22;10942;47.894;11.424;2023-02-11T02:27:02;-4.40;99.90
21563;DHT22;10942;47.894;11.424;2023-02-11T02:32:51;-4.40;99.90
21563;DHT22;10942;47.894;11.424;2023-02-11T02:35:41;-4.40;99.90
21563;DHT22;10942;47.894;11.424;2023-02-11T02:38:20;-4.40;99.90
21563;DHT22;10942;47.894;11.424;2023-02-11T02:40:58;-4.40;99.90
21563;DHT22;10942;47.894;11.424;2023-02-11T02:43:26;-4.40;99.90
21563;DHT22;10942;47.894;11.424;2023-02-11T02:45:53;-4.40;99.90
21563;DHT22;10942;47.894;11.424;2023-02-11T02:48:32;-4.40;99.90
21563;DHT22;10942;47.894;11.424;2023-02-11T02:56:56;-4.50;99.90
21563;DHT22;10942;47.894;11.424;2023-02-11T03:02:29;-4.50;99.90
21563;DHT22;10942;47.894;11.424;2023-02-11T03:05:02;-4.60;99.90
21563;DHT22;10942;47.894;11.424;2023-02-11T03:07:43;-4.70;99.90
21563;DHT22;10942;47.894;11.424;2023-02-11T03:10:25;-4.70;99.90
21563;DHT22;10942;47.894;11.424;2023-02-11T03:12:53;-4.70;99.90
21563;DHT22;10942;47.894;11.424;2023-02-11T03:15:21;-4.70;99.90
21563;DHT22;10942;47.894;11.424;2023-02-11T03:17:51;-4.70;99.90
21563;DHT22;10942;47.894;11.424;2023-02-11T03:20:19;-4.70;99.90
21563;DHT22;10942;47.894;11.424;2023-02-11T03:22:53;-4.70;99.90
21563;DHT22;10942;47.894;11.424;2023-02-11T03:25:27;-4.70;99.90
21563;DHT22;10942;47.894;11.424;2023-02-11T03:27:56;-4.70;99.90
21563;DHT22;10942;47.894;11.424;2023-02-11T03:30:34;-4.70;99.90
21563;DHT22;10942;47.894;11.424;2023-02-11T03:33:06;-4.70;99.90
21563;DHT22;10942;47.894;11.424;2023-02-11T03:35:44;-4.80;99.90
21563;DHT22;10942;47.894;11.424;2023-02-11T03:38:30;-4.80;99.90
21563;DHT22;10942;47.894;11.424;2023-02-11T03:40:58;-4.80;99.90
21563;DHT22;10942;47.894;11.424;2023-02-11T03:44:13;-4.80;99.90
21563;DHT22;10942;47.894;11.424;2023-02-11T03:46:23;-4.80;99.90
21563;DHT22;10942;47.894;11.424;2023-02-11T03:48:55;-4.80;99.90
21563;DHT22;10942;47.894;11.424;2023-02-11T03:51:23;-4.80;99.90
21563;DHT22;10942;47.894;11.424;2023-02-11T03:53:52;-4.80;99.90
21563;DHT22;10942;47.894;11.424;2023-02-11T03:56:22;-4.80;99.90
21563;DHT22;10942;47.894;11.424;2023-02-11T03:58:49;-4.80;99.90
21563;DHT22;10942;47.894;11.424;2023-02-11T04:01:15;-4.80;99.90
21563;DHT22;10942;47.894;11.424;2023-02-11T04:03:40;-4.80;99.90
21563;DHT22;10942;47.894;11.424;2023-02-11T04:06:06;-4.80;99.90
21563;DHT22;10942;47.894;11.424;2023-02-11T04:08:32;-4.90;99.90
21563;DHT22;10942;47.894;11.424;2023-02-11T04:10:58;-4.90;99.90
21563;DHT22;10942;47.894;11.424;2023-02-11T04:13:24;-4.90;99.90
21563;DHT22;10942;47.894;11.424;2023-02-11T04:15:50;-4.80;99.90
21563;DHT22;10942;47.894;11.424;2023-02-11T04:18:15;-4.90;99.90
21563;DHT22;10942;47.894;11.424;2023-02-11T04:20:41;-4.90;99.90
21563;DHT22;10942;47.894;11.424;2023-02-11T04:23:07;-4.90;99.90
21563;DHT22;10942;47.894;11.424;2023-02-11T04:25:32;-4.90;99.90
21563;DHT22;10942;47.894;11.424;2023-02-11T04:27:58;-4.80;99.90
21563;DHT22;10942;47.894;11.424;2023-02-11T04:30:24;-4.90;99.90
21563;DHT22;10942;47.894;11.424;2023-02-11T04:32:49;-4.90;99.90
21563;DHT22;10942;47.894;11.424;2023-02-11T04:35:15;-4.90;99.90
21563;DHT22;10942;47.894;11.424;2023-02-11T04:37:41;-4.90;99.90
21563;DHT22;10942;47.894;11.424;2023-02-11T04:40:07;-4.90;99.90
21563;DHT22;10942;47.894;11.424;2023-02-11T04:42:33;-5.00;99.90
21563;DHT22;10942;47.894;11.424;2023-02-11T04:44:58;-5.00;99.90
21563;DHT22;10942;47.894;11.424;2023-02-11T04:47:24;-5.00;99.90
21563;DHT22;10942;47.894;11.424;2023-02-11T04:49:50;-5.00;99.90
21563;DHT22;10942;47.894;11.424;2023-02-11T04:52:15;-5.00;99.90
21563;DHT22;10942;47.894;11.424;2023-02-11T04:54:41;-5.00;99.90
21563;DHT22;10942;47.894;11.424;2023-02-11T04:57:07;-5.00;99.90
21563;DHT22;10942;47.894;11.424;2023-02-11T04:59:32;-5.00;99.90
21563;DHT22;10942;47.894;11.424;2023-02-11T05:01:58;-5.00;99.90
21563;DHT22;10942;47.894;11.424;2023-02-11T05:04:24;-5.00;99.90
21563;DHT22;10942;47.894;11.424;2023-02-11T05:06:49;-5.00;99.90
21563;DHT22;10942;47.894;11.424;2023-02-11T05:09:15;-5.00;99.90
21563;DHT22;10942;47.894;11.424;2023-02-11T05:11:41;-5.10;99.90
21563;DHT22;10942;47.894;11.424;2023-02-11T05:14:07;-5.10;99.90
21563;DHT22;10942;47.894;11.424;2023-02-11T05:16:32;-5.00;99.90
21563;DHT22;10942;47.894;11.424;2023-02-11T05:18:58;-5.10;99.90
21563;DHT22;10942;47.894;11.424;2023-02-11T05:21:24;-5.10;99.90
21563;DHT22;10942;47.894;11.424;2023-02-11T05:23:50;-5.10;99.90
21563;DHT22;10942;47.894;11.424;2023-02-11T05:26:16;-5.10;99.90
21563;DHT22;10942;47.894;11.424;2023-02-11T05:28:43;-5.20;99.90
21563;DHT22;10942;47.894;11.424;2023-02-11T05:31:09;-5.10;99.90
21563;DHT22;10942;47.894;11.424;2023-02-11T05:33:35;-5.10;99.90
21563;DHT22;10942;47.894;11.424;2023-02-11T05:36:04;-5.10;99.90
21563;DHT22;10942;47.894;11.424;2023-02-11T05:38:30;-5.20;99.90
21563;DHT22;10942;47.894;11.424;2023-02-11T05:40:55;-5.20;99.90
21563;DHT22;10942;47.894;11.424;2023-02-11T05:43:21;-5.20;99.90
21563;DHT22;10942;47.894;11.424;2023-02-11T05:45:47;-5.20;99.90
21563;DHT22;10942;47.894;11.424;2023-02-11T05:48:13;-5.20;99.90
21563;DHT22;10942;47.894;11.424;2023-02-11T05:50:39;-5.20;99.90
21563;DHT22;10942;47.894;11.424;2023-02-11T05:53:05;-5.20;99.90
21563;DHT22;10942;47.894;11.424;2023-02-11T05:55:32;-5.30;99.90
21563;DHT22;10942;47.894;11.424;2023-02-11T05:57:57;-5.20;99.90
21563;DHT22;10942;47.894;11.424;2023-02-11T06:00:23;-5.20;99.90
21563;DHT22;10942;47.894;11.424;2023-02-11T06:02:49;-5.10;99.90
21563;DHT22;10942;47.894;11.424;2023-02-11T06:05:15;-5.10;99.90
21563;DHT22;10942;47.894;11.424;2023-02-11T06:07:41;-5.00;99.90
21563;DHT22;10942;47.894;11.424;2023-02-11T06:10:07;-5.00;99.90
21563;DHT22;10942;47.894;11.424;2023-02-11T06:12:35;-4.90;99.90
21563;DHT22;10942;47.894;11.424;2023-02-11T06:15:01;-4.90;99.90
21563;DHT22;10942;47.894;11.424;2023-02-11T06:17:26;-4.80;99.90
21563;DHT22;10942;47.894;11.424;2023-02-11T06:19:56;-4.80;99.90
21563;DHT22;10942;47.894;11.424;2023-02-11T06:22:21;-4.70;99.90
21563;DHT22;10942;47.894;11.424;2023-02-11T06:24:47;-4.70;99.90
21563;DHT22;10942;47.894;11.424;2023-02-11T06:27:13;-4.60;99.90
21563;DHT22;10942;47.894;11.424;2023-02-11T06:29:38;-4.60;99.90
21563;DHT22;10942;47.894;11.424;2023-02-11T06:32:04;-4.50;99.90
21563;DHT22;10942;47.894;11.424;2023-02-11T06:34:30;-4.50;99.90
21563;DHT22;10942;47.894;11.424;2023-02-11T06:36:55;-4.50;99.90
21563;DHT22;10942;47.894;11.424;2023-02-11T06:39:21;-4.50;99.90
21563;DHT22;10942;47.894;11.424;2023-02-11T06:41:47;-4.40;99.90
21563;DHT22;10942;47.894;11.424;2023-02-11T06:44:12;-4.40;99.90
21563;DHT22;10942;47.894;11.424;2023-02-11T06:46:38;-4.30;99.90
21563;DHT22;10942;47.894;11.424;2023-02-11T06:49:04;-4.30;99.90
21563;DHT22;10942;47.894;11.424;2023-02-11T06:51:29;-4.30;99.90
21563;DHT22;10942;47.894;11.424;2023-02-11T06:53:55;-4.20;99.90
21563;DHT22;10942;47.894;11.424;2023-02-11T06:56:22;-4.20;99.90
21563;DHT22;10942;47.894;11.424;2023-02-11T06:58:52;-4.10;99.90
21563;DHT22;10942;47.894;11.424;2023-02-11T07:01:19;-4.00;99.90
21563;DHT22;10942;47.894;11.424;2023-02-11T07:03:45;-3.90;99.90
21563;DHT22;10942;47.894;11.424;2023-02-11T07:06:17;-3.80;99.90
21563;DHT22;10942;47.894;11.424;2023-02-11T07:08:43;-3.80;99.90
21563;DHT22;10942;47.894;11.424;2023-02-11T07:11:22;-3.70;99.90
21563;DHT22;10942;47.894;11.424;2023-02-11T07:13:49;-3.60;99.90
21563;DHT22;10942;47.894;11.424;2023-02-11T07:16:17;-3.50;99.90
21563;DHT22;10942;47.894;11.424;2023-02-11T07:18:44;-3.40;99.90
21563;DHT22;10942;47.894;11.424;2023-02-11T07:21:12;-3.30;99.90
21563;DHT22;10942;47.894;11.424;2023-02-11T07:23:38;-3.20;99.90
21563;DHT22;10942;47.894;11.424;2023-02-11T07:26:10;-3.10;99.90
21563;DHT22;10942;47.894;11.424;2023-02-11T07:28:36;-2.90;99.90
21563;DHT22;10942;47.894;11.424;2023-02-11T07:31:23;-2.80;99.90
21563;DHT22;10942;47.894;11.424;2023-02-11T07:33:52;-2.70;99.90
21563;DHT22;10942;47.894;11.424;2023-02-11T07:36:18;-2.60;99.90
21563;DHT22;10942;47.894;11.424;2023-02-11T07:38:44;-2.60;99.90
21563;DHT22;10942;47.894;11.424;2023-02-11T07:41:12;-2.60;99.90
21563;DHT22;10942;47.894;11.424;2023-02-11T07:43:38;-2.60;99.90
21563;DHT22;10942;47.894;11.424;2023-02-11T07:46:06;-2.50;99.90
21563;DHT22;10942;47.894;11.424;2023-02-11T07:48:31;-2.50;99.90
21563;DHT22;10942;47.894;11.424;2023-02-11T07:51:15;-2.50;99.90
21563;DHT22;10942;47.894;11.424;2023-02-11T07:53:42;-2.50;99.90
21563;DHT22;10942;47.894;11.424;2023-02-11T07:56:09;-2.40;99.90
21563;DHT22;10942;47.894;11.424;2023-02-11T07:58:35;-2.30;99.90
21563;DHT22;10942;47.894;11.424;2023-02-11T08:01:06;-2.30;99.90
21563;DHT22;10942;47.894;11.424;2023-02-11T08:03:33;-2.20;99.90
21563;DHT22;10942;47.894;11.424;2023-02-11T08:06:10;-2.20;99.90
21563;DHT22;10942;47.894;11.424;2023-02-11T08:08:36;-2.00;99.90
21563;DHT22;10942;47.894;11.424;2023-02-11T08:11:08;-1.90;99.90
21563;DHT22;10942;47.894;11.424;2023-02-11T08:13:35;-1.90;99.90
21563;DHT22;10942;47.894;11.424;2023-02-11T08:16:02;-1.90;99.90
21563;DHT22;10942;47.894;11.424;2023-02-11T08:18:28;-2.00;99.90
21563;DHT22;10942;47.894;11.424;2023-02-11T08:20:54;-2.00;99.90
21563;DHT22;10942;47.894;11.424;2023-02-11T08:23:20;-2.00;99.90
21563;DHT22;10942;47.894;11.424;2023-02-11T08:25:45;-1.90;99.90
21563;DHT22;10942;47.894;11.424;2023-02-11T08:28:11;-1.90;99.90
21563;DHT22;10942;47.894;11.424;2023-02-11T08:30:37;-1.80;99.90
21563;DHT22;10942;47.894;11.424;2023-02-11T08:33:02;-1.70;99.90
21563;DHT22;10942;47.894;11.424;2023-02-11T08:35:28;-1.50;99.90
21563;DHT22;10942;47.894;11.424;2023-02-11T08:37:54;-1.40;99.90
21563;DHT22;10942;47.894;11.424;2023-02-11T08:40:19;-1.30;99.90
21563;DHT22;10942;47.894;11.424;2023-02-11T08:42:45;-1.20;99.90
21563;DHT22;10942;47.894;11.424;2023-02-11T08:45:11;-1.10;99.90
21563;DHT22;10942;47.894;11.424;2023-02-11T08:47:37;-1.10;99.90
21563;DHT22;10942;47.894;11.424;2023-02-11T08:50:04;-0.80;99.90
21563;DHT22;10942;47.894;11.424;2023-02-11T08:52:30;-0.60;99.90
21563;DHT22;10942;47.894;11.424;2023-02-11T08:54:56;-0.40;99.90
21563;DHT22;10942;47.894;11.424;2023-02-11T08:57:21;-0.30;99.90
21563;DHT22;10942;47.894;11.424;2023-02-11T08:59:47;-0.10;99.90
21563;DHT22;10942;47.894;11.424;2023-02-11T09:02:13;0.10;99.90
21563;DHT22;10942;47.894;11.424;2023-02-11T09:04:39;0.30;99.90
21563;DHT22;10942;47.894;11.424;2023-02-11T09:07:06;0.50;99.90
21563;DHT22;10942;47.894;11.424;2023-02-11T09:09:32;0.80;99.90
21563;DHT22;10942;47.894;11.424;2023-02-11T09:11:58;0.90;99.90
21563;DHT22;10942;47.894;11.424;2023-02-11T09:14:25;1.00;99.90
21563;DHT22;10942;47.894;11.424;2023-02-11T09:16:51;1.00;99.90
21563;DHT22;10942;47.894;11.424;2023-02-11T09:19:18;1.30;99.90
21563;DHT22;10942;47.894;11.424;2023-02-11T09:21:44;1.70;99.90
21563;DHT22;10942;47.894;11.424;2023-02-11T09:24:10;1.90;99.90
21563;DHT22;10942;47.894;11.424;2023-02-11T09:26:37;2.30;99.90
21563;DHT22;10942;47.894;11.424;2023-02-11T09:29:04;2.40;99.90
21563;DHT22;10942;47.894;11.424;2023-02-11T09:31:31;2.30;99.90
21563;DHT22;10942;47.894;11.424;2023-02-11T09:33:59;1.90;99.90
21563;DHT22;10942;47.894;11.424;2023-02-11T09:36:31;1.80;99.90
21563;DHT22;10942;47.894;11.424;2023-02-11T09:38:58;1.80;99.90
21563;DHT22;10942;47.894;11.424;2023-02-11T09:44:20;1.90;99.90
21563;DHT22;10942;47.894;11.424;2023-02-11T09:46:55;1.70;99.90
21563;DHT22;10942;47.894;11.424;2023-02-11T09:49:33;1.70;99.90
21563;DHT22;10942;47.894;11.424;2023-02-11T09:54:55;1.60;99.90
21563;DHT22;10942;47.894;11.424;2023-02-11T09:57:22;1.70;99.90
21563;DHT22;10942;47.894;11.424;2023-02-11T09:59:48;1.70;99.90
21563;DHT22;10942;47.894;11.424;2023-02-11T10:02:23;1.70;99.90
21563;DHT22;10942;47.894;11.424;2023-02-11T10:07:50;1.90;99.90
21563;DHT22;10942;47.894;11.424;2023-02-11T10:16:13;2.10;99.90
21563;DHT22;10942;47.894;11.424;2023-02-11T10:24:19;3.20;99.90
21563;DHT22;10942;47.894;11.424;2023-02-11T10:26:45;3.50;99.90
21563;DHT22;10942;47.894;11.424;2023-02-11T10:31:59;3.90;99.90
21563;DHT22;10942;47.894;11.424;2023-02-11T10:34:25;3.90;99.90
21563;DHT22;10942;47.894;11.424;2023-02-11T10:36:51;4.00;99.90
21563;DHT22;10942;47.894;11.424;2023-02-11T10:39:22;4.00;99.90
21563;DHT22;10942;47.894;11.424;2023-02-11T10:42:03;4.10;99.90
21563;DHT22;10942;47.894;11.424;2023-02-11T10:44:36;4.20;99.90
21563;DHT22;10942;47.894;11.424;2023-02-11T10:47:08;4.20;99.90
21563;DHT22;10942;47.894;11.424;2023-02-11T10:49:43;4.00;99.90
21563;DHT22;10942;47.894;11.424;2023-02-11T10:52:23;4.10;99.90
21563;DHT22;10942;47.894;11.424;2023-02-11T10:55:04;4.10;99.90
21563;DHT22;10942;47.894;11.424;2023-02-11T10:57:37;4.00;99.90
21563;DHT22;10942;47.894;11.424;2023-02-11T11:02:57;4.00;99.90
21563;DHT22;10942;47.894;11.424;2023-02-11T11:05:30;4.00;99.90
21563;DHT22;10942;47.894;11.424;2023-02-11T11:08:03;4.10;99.90
21563;DHT22;10942;47.894;11.424;2023-02-11T11:10:40;4.20;99.90
21563;DHT22;10942;47.894;11.424;2023-02-11T11:13:36;4.10;99.90
21563;DHT22;10942;47.894;11.424;2023-02-11T11:18:38;4.20;99.90
21563;DHT22;10942;47.894;11.424;2023-02-11T11:21:10;4.30;99.90
21563;DHT22;10942;47.894;11.424;2023-02-11T11:23:38;4.30;99.90
21563;DHT22;10942;47.894;11.424;2023-02-11T11:26:14;4.30;99.90
21563;DHT22;10942;47.894;11.424;2023-02-11T11:28:54;4.40;99.90
21563;DHT22;10942;47.894;11.424;2023-02-11T11:33:53;4.50;99.90
21563;DHT22;10942;47.894;11.424;2023-02-11T11:36:23;4.60;99.90
21563;DHT22;10942;47.894;11.424;2023-02-11T11:38:57;4.60;99.90
21563;DHT22;10942;47.894;11.424;2023-02-11T11:41:31;4.70;99.90
21563;DHT22;10942;47.894;11.424;2023-02-11T11:44:16;4.90;99.90
21563;DHT22;10942;47.894;11.424;2023-02-11T11:55:25;5.00;99.90
21563;DHT22;10942;47.894;11.424;2023-02-11T11:57:51;4.90;99.90
21563;DHT22;10942;47.894;11.424;2023-02-11T12:00:35;4.90;99.90
21563;DHT22;10942;47.894;11.424;2023-02-11T12:06:19;5.00;99.90
21563;DHT22;10942;47.894;11.424;2023-02-11T12:12:25;5.10;99.90
21563;DHT22;10942;47.894;11.424;2023-02-11T12:14:33;5.20;99.90
21563;DHT22;10942;47.894;11.424;2023-02-11T12:25:55;5.20;99.90
21563;DHT22;10942;47.894;11.424;2023-02-11T12:31:26;5.50;99.90
21563;DHT22;10942;47.894;11.424;2023-02-11T12:33:59;5.50;99.90
21563;DHT22;10942;47.894;11.424;2023-02-11T12:42:23;6.10;99.90
21563;DHT22;10942;47.894;11.424;2023-02-11T12:45:14;6.20;99.90
21563;DHT22;10942;47.894;11.424;2023-02-11T12:47:54;6.30;99.90
21563;DHT22;10942;47.894;11.424;2023-02-11T12:50:44;6.40;99.90
21563;DHT22;10942;47.894;11.424;2023-02-11T12:53:40;6.40;99.90
21563;DHT22;10942;47.894;11.424;2023-02-11T12:56:22;6.50;99.90
21563;DHT22;10942;47.894;11.424;2023-02-11T12:58:51;6.50;99.90
21563;DHT22;10942;47.894;11.424;2023-02-11T13:01:25;6.60;99.90
21563;DHT22;10942;47.894;11.424;2023-02-11T13:03:56;6.60;99.90
21563;DHT22;10942;47.894;11.424;2023-02-11T13:06:45;6.60;99.90
21563;DHT22;10942;47.894;11.424;2023-02-11T13:09:21;6.70;99.90
21563;DHT22;10942;47.894;11.424;2023-02-11T13:11:50;6.80;99.90
21563;DHT22;10942;47.894;11.424;2023-02-11T13:14:33;6.60;99.90
21563;DHT22;10942;47.894;11.424;2023-02-11T13:17:07;6.60;99.90
21563;DHT22;10942;47.894;11.424;2023-02-11T13:19:51;6.60;99.90
21563;DHT22;10942;47.894;11.424;2023-02-11T13:22:29;6.70;99.90
21563;DHT22;10942;47.894;11.424;2023-02-11T13:27:52;6.70;99.90
21563;DHT22;10942;47.894;11.424;2023-02-11T13:30:31;6.70;99.90
21563;DHT22;10942;47.894;11.424;2023-02-11T13:35:37;6.70;99.90
21563;DHT22;10942;47.894;11.424;2023-02-11T13:40:41;6.80;99.90
21563;DHT22;10942;47.894;11.424;2023-02-11T13:43:21;6.70;99.90
21563;DHT22;10942;47.894;11.424;2023-02-11T13:45:49;6.80;99.90
21563;DHT22;10942;47.894;11.424;2023-02-11T13:48:27;6.70;99.90
21563;DHT22;10942;47.894;11.424;2023-02-11T13:51:02;6.70;99.90
21563;DHT22;10942;47.894;11.424;2023-02-11T13:53:50;6.60;99.90
21563;DHT22;10942;47.894;11.424;2023-02-11T13:58:56;6.70;99.90
21563;DHT22;10942;47.894;11.424;2023-02-11T14:11:41;6.70;99.90
21563;DHT22;10942;47.894;11.424;2023-02-11T14:16:12;6.80;99.90
21563;DHT22;10942;47.894;11.424;2023-02-11T14:23:39;6.90;99.90
21563;DHT22;10942;47.894;11.424;2023-02-11T14:26:26;7.00;99.90
21563;DHT22;10942;47.894;11.424;2023-02-11T14:29:14;7.00;99.90
21563;DHT22;10942;47.894;11.424;2023-02-11T14:31:48;7.00;99.90
21563;DHT22;10942;47.894;11.424;2023-02-11T14:34:30;7.00;99.90
21563;DHT22;10942;47.894;11.424;2023-02-11T14:39:55;6.90;99.90
21563;DHT22;10942;47.894;11.424;2023-02-11T14:42:24;7.00;99.90
21563;DHT22;10942;47.894;11.424;2023-02-11T14:44:54;6.90;99.90
21563;DHT22;10942;47.894;11.424;2023-02-11T14:50:30;6.90;99.90
21563;DHT22;10942;47.894;11.424;2023-02-11T14:52:58;6.80;99.90
21563;DHT22;10942;47.894;11.424;2023-02-11T14:55:38;6.70;99.90
21563;DHT22;10942;47.894;11.424;2023-02-11T14:58:15;6.70;99.90
21563;DHT22;10942;47.894;11.424;2023-02-11T15:03:40;6.70;99.90
21563;DHT22;10942;47.894;11.424;2023-02-11T15:06:07;6.60;99.90
21563;DHT22;10942;47.894;11.424;2023-02-11T15:08:42;6.60;99.90
21563;DHT22;10942;47.894;11.424;2023-02-11T15:11:13;6.50;99.90
21563;DHT22;10942;47.894;11.424;2023-02-11T15:13:40;6.50;99.90
21563;DHT22;10942;47.894;11.424;2023-02-11T15:16:12;6.50;99.90
21563;DHT22;10942;47.894;11.424;2023-02-11T15:18:48;6.50;99.90
21563;DHT22;10942;47.894;11.424;2023-02-11T15:21:26;6.40;99.90
21563;DHT22;10942;47.894;11.424;2023-02-11T15:23:59;6.40;99.90
21563;DHT22;10942;47.894;11.424;2023-02-11T15:26:26;6.30;99.90
21563;DHT22;10942;47.894;11.424;2023-02-11T15:28:52;6.30;99.90
21563;DHT22;10942;47.894;11.424;2023-02-11T15:31:24;6.30;99.90
21563;DHT22;10942;47.894;11.424;2023-02-11T15:33:50;6.30;99.90
21563;DHT22;10942;47.894;11.424;2023-02-11T15:36:19;6.20;99.90
21563;DHT22;10942;47.894;11.424;2023-02-11T15:39:06;6.20;99.90
21563;DHT22;10942;47.894;11.424;2023-02-11T15:41:40;6.10;99.90
21563;DHT22;10942;47.894;11.424;2023-02-11T15:44:28;6.10;99.90
21563;DHT22;10942;47.894;11.424;2023-02-11T15:46:55;6.10;99.90
21563;DHT22;10942;47.894;11.424;2023-02-11T15:49:21;6.10;99.90
21563;DHT22;10942;47.894;11.424;2023-02-11T15:51:48;6.00;99.90
21563;DHT22;10942;47.894;11.424;2023-02-11T15:54:20;6.10;99.90
21563;DHT22;10942;47.894;11.424;2023-02-11T15:57:03;6.00;99.90
21563;DHT22;10942;47.894;11.424;2023-02-11T15:59:35;6.00;99.90
21563;DHT22;10942;47.894;11.424;2023-02-11T16:02:31;6.00;99.90
21563;DHT22;10942;47.894;11.424;2023-02-11T16:05:04;5.80;99.90
21563;DHT22;10942;47.894;11.424;2023-02-11T16:07:46;5.70;99.90
21563;DHT22;10942;47.894;11.424;2023-02-11T16:10:17;5.60;99.90
21563;DHT22;10942;47.894;11.424;2023-02-11T16:17:54;5.40;99.90
21563;DHT22;10942;47.894;11.424;2023-02-11T16:20:20;5.40;99.90
21563;DHT22;10942;47.894;11.424;2023-02-11T16:22:46;5.30;99.90
21563;DHT22;10942;47.894;11.424;2023-02-11T16:25:20;5.20;99.90
21563;DHT22;10942;47.894;11.424;2023-02-11T16:27:52;5.10;99.90
21563;DHT22;10942;47.894;11.424;2023-02-11T16:30:36;5.00;99.90
21563;DHT22;10942;47.894;11.424;2023-02-11T16:33:03;4.90;99.90
21563;DHT22;10942;47.894;11.424;2023-02-11T16:35:30;4.90;99.90
21563;DHT22;10942;47.894;11.424;2023-02-11T16:37:56;4.80;99.90
21563;DHT22;10942;47.894;11.424;2023-02-11T16:40:22;4.80;99.90
21563;DHT22;10942;47.894;11.424;2023-02-11T16:42:48;4.70;99.90
21563;DHT22;10942;47.894;11.424;2023-02-11T16:45:15;4.50;99.90
21563;DHT22;10942;47.894;11.424;2023-02-11T16:47:42;4.50;99.90
21563;DHT22;10942;47.894;11.424;2023-02-11T16:50:10;4.50;99.90
21563;DHT22;10942;47.894;11.424;2023-02-11T16:52:36;4.40;99.90
21563;DHT22;10942;47.894;11.424;2023-02-11T16:55:03;4.40;99.90
21563;DHT22;10942;47.894;11.424;2023-02-11T16:57:30;4.30;99.90
21563;DHT22;10942;47.894;11.424;2023-02-11T16:59:57;4.30;99.90
21563;DHT22;10942;47.894;11.424;2023-02-11T17:02:28;4.20;99.90
21563;DHT22;10942;47.894;11.424;2023-02-11T17:04:57;4.20;99.90
21563;DHT22;10942;47.894;11.424;2023-02-11T17:07:24;4.10;99.90
21563;DHT22;10942;47.894;11.424;2023-02-11T17:09:50;4.10;99.90
21563;DHT22;10942;47.894;11.424;2023-02-11T17:12:18;4.10;99.90
21563;DHT22;10942;47.894;11.424;2023-02-11T17:14:43;3.90;99.90
21563;DHT22;10942;47.894;11.424;2023-02-11T17:17:10;3.80;99.90
21563;DHT22;10942;47.894;11.424;2023-02-11T17:19:37;3.70;99.90
21563;DHT22;10942;47.894;11.424;2023-02-11T17:22:03;3.70;99.90
21563;DHT22;10942;47.894;11.424;2023-02-11T17:24:28;3.70;99.90
21563;DHT22;10942;47.894;11.424;2023-02-11T17:26:54;3.60;99.90
21563;DHT22;10942;47.894;11.424;2023-02-11T17:29:22;3.60;99.90
21563;DHT22;10942;47.894;11.424;2023-02-11T17:31:49;3.60;99.90
21563;DHT22;10942;47.894;11.424;2023-02-11T17:34:16;3.50;99.90
21563;DHT22;10942;47.894;11.424;2023-02-11T17:36:43;3.50;99.90
21563;DHT22;10942;47.894;11.424;2023-02-11T17:39:09;3.50;99.90
21563;DHT22;10942;47.894;11.424;2023-02-11T17:41:36;3.50;99.90
21563;DHT22;10942;47.894;11.424;2023-02-11T17:44:03;3.50;99.90
21563;DHT22;10942;47.894;11.424;2023-02-11T17:46:29;3.40;99.90
21563;DHT22;10942;47.894;11.424;2023-02-11T17:49:00;3.40;99.90
21563;DHT22;10942;47.894;11.424;2023-02-11T17:51:34;3.40;99.90
21563;DHT22;10942;47.894;11.424;2023-02-11T17:54:03;3.30;99.90